sensor_id;sensor_type;location;lat;lon;timestamp;P1;durP1;ratioP1;P2;durP2;ratioP2
5945;SDS011;2998;48.206;16.394;2023-02-15T00:27:34;47.93;;;18.97;;
5945;SDS011;2998;48.206;16.394;2023-02-15T00:30:02;47.00;;;19.10;;
5945;SDS011;2998;48.206;16.394;2023-02-15T00:32:30;82.63;;;19.77;;
5945;SDS011;2998;48.206;16.394;2023-02-15T00:34:58;44.83;;;19.90;;
5945;SDS011;2998;48.206;16.394;2023-02-15T00:37:26;60.73;;;19.93;;
5945;SDS011;2998;48.206;16.394;2023-02-15T00:39:54;65.90;;;20.10;;
5945;SDS011;2998;48.206;16.394;2023-02-15T00:42:22;40.03;;;19.17;;
5945;SDS011;2998;48.206;16.394;2023-02-15T00:44:51;48.77;;;20.70;;
5945;SDS011;2998;48.206;16.394;2023-02-15T00:47:19;62.10;;;20.40;;
5945;SDS011;2998;48.206;16.394;2023-02-15T00:49:47;47.67;;;20.90;;
5945;SDS011;2998;48.206;16.394;2023-02-15T00:52:15;47.60;;;20.17;;
5945;SDS011;2998;48.206;16.394;2023-02-15T00:54:43;48.17;;;19.27;;
5945;SDS011;2998;48.206;16.394;2023-02-15T00:57:10;49.70;;;19.70;;
5945;SDS011;2998;48.206;16.394;2023-02-15T00:59:38;41.47;;;18.33;;
5945;SDS011;2998;48.206;16.394;2023-02-15T01:02:08;41.50;;;17.90;;
5945;SDS011;2998;48.206;16.394;2023-02-15T01:04:36;50.00;;;18.70;;
5945;SDS011;2998;48.206;16.394;2023-02-15T01:07:03;40.37;;;18.70;;
5945;SDS011;2998;48.206;16.394;2023-02-15T01:09:31;55.90;;;23.50;;
5945;SDS011;2998;48.206;16.394;2023-02-15T01:11:59;59.07;;;21.83;;
5945;SDS011;2998;48.206;16.394;2023-02-15T01:14:27;56.23;;;23.77;;
5945;SDS011;2998;48.206;16.394;2023-02-15T01:16:55;52.03;;;26.50;;
5945;SDS011;2998;48.206;16.394;2023-02-15T01:19:24;43.70;;;19.17;;
5945;SDS011;2998;48.206;16.394;2023-02-15T01:21:52;44.70;;;20.70;;
5945;SDS011;2998;48.206;16.394;2023-02-15T01:24:20;47.40;;;22.93;;
5945;SDS011;2998;48.206;16.394;2023-02-15T01:26:48;47.67;;;21.90;;
5945;SDS011;2998;48.206;16.394;2023-02-15T01:29:16;38.10;;;17.17;;
5945;SDS011;2998;48.206;16.394;2023-02-15T01:31:44;41.43;;;17.37;;
5945;SDS011;2998;48.206;16.394;2023-02-15T01:34:12;36.47;;;16.07;;
5945;SDS011;2998;48.206;16.394;2023-02-15T01:36:41;30.83;;;16.00;;
5945;SDS011;2998;48.206;16.394;2023-02-15T01:39:09;34.27;;;15.40;;
5945;SDS011;2998;48.206;16.394;2023-02-15T01:41:37;49.93;;;17.13;;
5945;SDS011;2998;48.206;16.394;2023-02-15T01:47:03;30.57;;;15.60;;
5945;SDS011;2998;48.206;16.394;2023-02-15T01:49:31;34.67;;;14.90;;
5945;SDS011;2998;48.206;16.394;2023-02-15T01:52:01;41.53;;;16.77;;
5945;SDS011;2998;48.206;16.394;2023-02-15T01:54:29;59.33;;;24.40;;
5945;SDS011;2998;48.206;16.394;2023-02-15T01:57:00;41.43;;;21.80;;
5945;SDS011;2998;48.206;16.394;2023-02-15T01:59:30;31.60;;;13.77;;
5945;SDS011;2998;48.206;16.394;2023-02-15T02:01:59;34.07;;;16.27;;
5945;SDS011;2998;48.206;16.394;2023-02-15T02:04:29;33.67;;;15.07;;
5945;SDS011;2998;48.206;16.394;2023-02-15T02:07:00;49.70;;;23.00;;
5945;SDS011;2998;48.206;16.394;2023-02-15T02:09:28;39.10;;;16.13;;
5945;SDS011;2998;48.206;16.394;2023-02-15T02:11:56;37.33;;;15.70;;
5945;SDS011;2998;48.206;16.394;2023-02-15T02:14:24;36.00;;;16.00;;
5945;SDS011;2998;48.206;16.394;2023-02-15T02:16:55;33.00;;;14.93;;
5945;SDS011;2998;48.206;16.394;2023-02-15T02:19:36;45.93;;;16.33;;
5945;SDS011;2998;48.206;16.394;2023-02-15T02:22:23;40.00;;;15.73;;
5945;SDS011;2998;48.206;16.394;2023-02-15T02:25:12;35.00;;;15.03;;
5945;SDS011;2998;48.206;16.394;2023-02-15T02:28:01;27.60;;;14.03;;
5945;SDS011;2998;48.206;16.394;2023-02-15T02:30:49;36.73;;;14.60;;
5945;SDS011;2998;48.206;16.394;2023-02-15T02:33:36;33.97;;;15.10;;
5945;SDS011;2998;48.206;16.394;2023-02-15T02:36:15;32.47;;;14.40;;
5945;SDS011;2998;48.206;16.394;2023-02-15T02:38:52;41.20;;;15.87;;
5945;SDS011;2998;48.206;16.394;2023-02-15T02:41:30;32.63;;;14.57;;
5945;SDS011;2998;48.206;16.394;2023-02-15T02:44:01;36.73;;;16.40;;
5945;SDS011;2998;48.206;16.394;2023-02-15T02:46:37;31.80;;;17.10;;
5945;SDS011;2998;48.206;16.394;2023-02-15T02:49:08;43.87;;;20.33;;
5945;SDS011;2998;48.206;16.394;2023-02-15T02:51:36;26.57;;;13.13;;
5945;SDS011;2998;48.206;16.394;2023-02-15T02:54:04;29.50;;;13.93;;
5945;SDS011;2998;48.206;16.394;2023-02-15T02:56:33;32.90;;;13.43;;
5945;SDS011;2998;48.206;16.394;2023-02-15T02:59:05;33.00;;;14.60;;
5945;SDS011;2998;48.206;16.394;2023-02-15T03:01:35;31.07;;;14.50;;
5945;SDS011;2998;48.206;16.394;2023-02-15T03:04:07;35.53;;;16.50;;
5945;SDS011;2998;48.206;16.394;2023-02-15T03:06:39;27.80;;;13.90;;
5945;SDS011;2998;48.206;16.394;2023-02-15T03:09:10;25.63;;;12.83;;
5945;SDS011;2998;48.206;16.394;2023-02-15T03:11:47;29.63;;;13.20;;
5945;SDS011;2998;48.206;16.394;2023-02-15T03:14:16;28.20;;;14.00;;
5945;SDS011;2998;48.206;16.394;2023-02-15T03:16:46;36.83;;;17.40;;
5945;SDS011;2998;48.206;16.394;2023-02-15T03:19:17;25.83;;;13.60;;
5945;SDS011;2998;48.206;16.394;2023-02-15T03:21:48;28.20;;;12.73;;
5945;SDS011;2998;48.206;16.394;2023-02-15T03:24:24;34.77;;;18.13;;
5945;SDS011;2998;48.206;16.394;2023-02-15T03:26:56;38.23;;;22.47;;
5945;SDS011;2998;48.206;16.394;2023-02-15T03:29:26;91.90;;;41.10;;
5945;SDS011;2998;48.206;16.394;2023-02-15T03:31:56;121.33;;;60.53;;
5945;SDS011;2998;48.206;16.394;2023-02-15T03:34:28;42.10;;;21.13;;
5945;SDS011;2998;48.206;16.394;2023-02-15T03:36:57;30.97;;;15.53;;
5945;SDS011;2998;48.206;16.394;2023-02-15T03:39:30;29.00;;;12.80;;
5945;SDS011;2998;48.206;16.394;2023-02-15T03:42:02;22.13;;;11.93;;
5945;SDS011;2998;48.206;16.394;2023-02-15T03:44:36;32.03;;;12.27;;
5945;SDS011;2998;48.206;16.394;2023-02-15T03:47:08;28.13;;;12.83;;
5945;SDS011;2998;48.206;16.394;2023-02-15T03:49:42;29.60;;;14.80;;
5945;SDS011;2998;48.206;16.394;2023-02-15T03:52:12;30.50;;;12.40;;
5945;SDS011;2998;48.206;16.394;2023-02-15T03:54:41;25.60;;;13.53;;
5945;SDS011;2998;48.206;16.394;2023-02-15T03:57:12;37.43;;;12.80;;
5945;SDS011;2998;48.206;16.394;2023-02-15T04:00:00;55.17;;;15.23;;
5945;SDS011;2998;48.206;16.394;2023-02-15T04:02:52;31.07;;;14.50;;
5945;SDS011;2998;48.206;16.394;2023-02-15T04:05:33;24.80;;;12.80;;
5945;SDS011;2998;48.206;16.394;2023-02-15T04:08:01;32.33;;;12.27;;
5945;SDS011;2998;48.206;16.394;2023-02-15T04:10:30;28.50;;;13.37;;
5945;SDS011;2998;48.206;16.394;2023-02-15T04:13:15;21.20;;;10.77;;
5945;SDS011;2998;48.206;16.394;2023-02-15T04:15:43;26.17;;;13.80;;
5945;SDS011;2998;48.206;16.394;2023-02-15T04:18:29;24.90;;;12.70;;
5945;SDS011;2998;48.206;16.394;2023-02-15T04:21:16;25.63;;;12.80;;
5945;SDS011;2998;48.206;16.394;2023-02-15T04:24:02;26.47;;;11.00;;
5945;SDS011;2998;48.206;16.394;2023-02-15T04:26:48;36.23;;;12.47;;
5945;SDS011;2998;48.206;16.394;2023-02-15T04:29:19;26.40;;;13.73;;
5945;SDS011;2998;48.206;16.394;2023-02-15T04:31:46;32.80;;;13.70;;
5945;SDS011;2998;48.206;16.394;2023-02-15T04:34:15;26.47;;;12.20;;
5945;SDS011;2998;48.206;16.394;2023-02-15T04:36:44;30.40;;;13.10;;
5945;SDS011;2998;48.206;16.394;2023-02-15T04:39:12;24.77;;;12.50;;
5945;SDS011;2998;48.206;16.394;2023-02-15T04:41:41;23.97;;;12.60;;
5945;SDS011;2998;48.206;16.394;2023-02-15T04:44:09;22.80;;;12.50;;
5945;SDS011;2998;48.206;16.394;2023-02-15T04:46:37;27.23;;;13.20;;
5945;SDS011;2998;48.206;16.394;2023-02-15T04:49:05;24.53;;;12.73;;
5945;SDS011;2998;48.206;16.394;2023-02-15T04:51:33;27.43;;;13.13;;
5945;SDS011;2998;48.206;16.394;2023-02-15T04:54:03;30.43;;;12.47;;
5945;SDS011;2998;48.206;16.394;2023-02-15T04:56:31;21.77;;;11.40;;
5945;SDS011;2998;48.206;16.394;2023-02-15T04:59:00;20.57;;;11.77;;
5945;SDS011;2998;48.206;16.394;2023-02-15T05:01:28;23.40;;;11.73;;
5945;SDS011;2998;48.206;16.394;2023-02-15T05:03:56;24.83;;;12.73;;
5945;SDS011;2998;48.206;16.394;2023-02-15T05:06:24;23.40;;;11.93;;
5945;SDS011;2998;48.206;16.394;2023-02-15T05:08:52;27.03;;;13.90;;
5945;SDS011;2998;48.206;16.394;2023-02-15T05:11:21;30.70;;;13.67;;
5945;SDS011;2998;48.206;16.394;2023-02-15T05:13:49;23.57;;;12.90;;
5945;SDS011;2998;48.206;16.394;2023-02-15T05:16:18;23.13;;;12.07;;
5945;SDS011;2998;48.206;16.394;2023-02-15T05:18:46;17.37;;;11.70;;
5945;SDS011;2998;48.206;16.394;2023-02-15T05:21:14;24.03;;;12.33;;
5945;SDS011;2998;48.206;16.394;2023-02-15T05:23:42;26.43;;;12.63;;
5945;SDS011;2998;48.206;16.394;2023-02-15T05:26:10;23.03;;;12.73;;
5945;SDS011;2998;48.206;16.394;2023-02-15T05:28:58;24.40;;;12.47;;
5945;SDS011;2998;48.206;16.394;2023-02-15T05:31:25;22.13;;;11.67;;
5945;SDS011;2998;48.206;16.394;2023-02-15T05:33:54;23.30;;;11.00;;
5945;SDS011;2998;48.206;16.394;2023-02-15T05:36:22;19.23;;;11.60;;
5945;SDS011;2998;48.206;16.394;2023-02-15T05:38:50;23.73;;;12.73;;
5945;SDS011;2998;48.206;16.394;2023-02-15T05:41:18;24.10;;;13.43;;
5945;SDS011;2998;48.206;16.394;2023-02-15T05:43:46;29.10;;;12.87;;
5945;SDS011;2998;48.206;16.394;2023-02-15T05:46:15;24.40;;;11.00;;
5945;SDS011;2998;48.206;16.394;2023-02-15T05:48:43;28.20;;;12.50;;
5945;SDS011;2998;48.206;16.394;2023-02-15T05:51:12;19.70;;;10.67;;
5945;SDS011;2998;48.206;16.394;2023-02-15T05:53:41;26.67;;;12.20;;
5945;SDS011;2998;48.206;16.394;2023-02-15T05:56:09;21.07;;;11.67;;
5945;SDS011;2998;48.206;16.394;2023-02-15T05:58:39;23.43;;;11.50;;
5945;SDS011;2998;48.206;16.394;2023-02-15T06:01:08;25.33;;;12.30;;
5945;SDS011;2998;48.206;16.394;2023-02-15T06:03:37;28.77;;;12.60;;
5945;SDS011;2998;48.206;16.394;2023-02-15T06:06:06;22.80;;;11.60;;
5945;SDS011;2998;48.206;16.394;2023-02-15T06:08:34;20.40;;;11.47;;
5945;SDS011;2998;48.206;16.394;2023-02-15T06:11:03;23.80;;;12.93;;
5945;SDS011;2998;48.206;16.394;2023-02-15T06:13:32;21.07;;;10.50;;
5945;SDS011;2998;48.206;16.394;2023-02-15T06:16:04;21.20;;;11.60;;
5945;SDS011;2998;48.206;16.394;2023-02-15T06:18:32;27.73;;;13.07;;
5945;SDS011;2998;48.206;16.394;2023-02-15T06:21:01;26.93;;;13.70;;
5945;SDS011;2998;48.206;16.394;2023-02-15T06:23:29;32.40;;;15.00;;
5945;SDS011;2998;48.206;16.394;2023-02-15T06:25:57;20.37;;;11.13;;
5945;SDS011;2998;48.206;16.394;2023-02-15T06:28:26;25.63;;;13.27;;
5945;SDS011;2998;48.206;16.394;2023-02-15T06:30:54;29.50;;;13.90;;
5945;SDS011;2998;48.206;16.394;2023-02-15T06:33:22;28.70;;;14.77;;
5945;SDS011;2998;48.206;16.394;2023-02-15T06:35:51;25.63;;;13.50;;
5945;SDS011;2998;48.206;16.394;2023-02-15T06:38:20;26.33;;;12.87;;
5945;SDS011;2998;48.206;16.394;2023-02-15T06:40:48;30.20;;;15.83;;
5945;SDS011;2998;48.206;16.394;2023-02-15T06:43:16;30.27;;;14.07;;
5945;SDS011;2998;48.206;16.394;2023-02-15T06:45:44;25.57;;;14.03;;
5945;SDS011;2998;48.206;16.394;2023-02-15T06:48:12;25.70;;;13.10;;
5945;SDS011;2998;48.206;16.394;2023-02-15T06:50:40;31.57;;;15.20;;
5945;SDS011;2998;48.206;16.394;2023-02-15T06:53:08;28.03;;;14.73;;
5945;SDS011;2998;48.206;16.394;2023-02-15T06:55:37;34.60;;;17.57;;
5945;SDS011;2998;48.206;16.394;2023-02-15T06:58:05;38.00;;;16.70;;
5945;SDS011;2998;48.206;16.394;2023-02-15T07:00:33;27.43;;;14.50;;
5945;SDS011;2998;48.206;16.394;2023-02-15T07:03:01;27.80;;;15.23;;
5945;SDS011;2998;48.206;16.394;2023-02-15T07:05:32;33.60;;;15.40;;
5945;SDS011;2998;48.206;16.394;2023-02-15T07:08:00;29.90;;;14.67;;
5945;SDS011;2998;48.206;16.394;2023-02-15T07:10:28;29.23;;;15.70;;
5945;SDS011;2998;48.206;16.394;2023-02-15T07:12:58;33.00;;;16.30;;
5945;SDS011;2998;48.206;16.394;2023-02-15T07:15:25;28.67;;;15.30;;
5945;SDS011;2998;48.206;16.394;2023-02-15T07:17:53;26.57;;;13.80;;
5945;SDS011;2998;48.206;16.394;2023-02-15T07:20:21;30.17;;;16.07;;
5945;SDS011;2998;48.206;16.394;2023-02-15T07:22:50;28.23;;;15.50;;
5945;SDS011;2998;48.206;16.394;2023-02-15T07:25:18;33.70;;;16.87;;
5945;SDS011;2998;48.206;16.394;2023-02-15T07:27:46;26.90;;;14.43;;
5945;SDS011;2998;48.206;16.394;2023-02-15T07:30:16;32.57;;;15.47;;
5945;SDS011;2998;48.206;16.394;2023-02-15T07:32:44;29.33;;;14.23;;
5945;SDS011;2998;48.206;16.394;2023-02-15T07:35:30;26.40;;;14.20;;
5945;SDS011;2998;48.206;16.394;2023-02-15T07:37:57;33.30;;;15.43;;
5945;SDS011;2998;48.206;16.394;2023-02-15T07:40:25;27.73;;;15.73;;
5945;SDS011;2998;48.206;16.394;2023-02-15T07:42:56;30.50;;;18.30;;
5945;SDS011;2998;48.206;16.394;2023-02-15T07:45:27;26.30;;;14.40;;
5945;SDS011;2998;48.206;16.394;2023-02-15T07:47:55;27.93;;;14.63;;
5945;SDS011;2998;48.206;16.394;2023-02-15T07:50:23;27.50;;;13.83;;
5945;SDS011;2998;48.206;16.394;2023-02-15T07:52:51;24.50;;;14.10;;
5945;SDS011;2998;48.206;16.394;2023-02-15T07:55:19;26.37;;;14.13;;
5945;SDS011;2998;48.206;16.394;2023-02-15T07:57:47;28.20;;;14.73;;
5945;SDS011;2998;48.206;16.394;2023-02-15T08:00:16;27.93;;;15.30;;
5945;SDS011;2998;48.206;16.394;2023-02-15T08:02:48;29.07;;;14.30;;
5945;SDS011;2998;48.206;16.394;2023-02-15T08:05:36;29.50;;;13.27;;
5945;SDS011;2998;48.206;16.394;2023-02-15T08:08:04;24.20;;;12.57;;
5945;SDS011;2998;48.206;16.394;2023-02-15T08:10:33;28.43;;;14.67;;
5945;SDS011;2998;48.206;16.394;2023-02-15T08:13:18;22.33;;;13.37;;
5945;SDS011;2998;48.206;16.394;2023-02-15T08:15:50;21.40;;;12.57;;
5945;SDS011;2998;48.206;16.394;2023-02-15T08:18:19;24.90;;;13.30;;
5945;SDS011;2998;48.206;16.394;2023-02-15T08:20:48;25.87;;;13.30;;
5945;SDS011;2998;48.206;16.394;2023-02-15T08:23:16;24.23;;;13.93;;
5945;SDS011;2998;48.206;16.394;2023-02-15T08:25:44;24.73;;;12.73;;
5945;SDS011;2998;48.206;16.394;2023-02-15T08:28:12;22.40;;;13.90;;
5945;SDS011;2998;48.206;16.394;2023-02-15T08:30:40;18.17;;;12.07;;
5945;SDS011;2998;48.206;16.394;2023-02-15T08:33:08;27.87;;;14.53;;
5945;SDS011;2998;48.206;16.394;2023-02-15T08:35:38;26.13;;;14.17;;
5945;SDS011;2998;48.206;16.394;2023-02-15T08:38:06;27.23;;;15.17;;
5945;SDS011;2998;48.206;16.394;2023-02-15T08:40:34;32.53;;;16.67;;
5945;SDS011;2998;48.206;16.394;2023-02-15T08:43:04;24.70;;;15.57;;
5945;SDS011;2998;48.206;16.394;2023-02-15T08:45:33;29.37;;;17.47;;
5945;SDS011;2998;48.206;16.394;2023-02-15T08:48:01;28.73;;;15.00;;
5945;SDS011;2998;48.206;16.394;2023-02-15T08:50:29;25.77;;;16.10;;
5945;SDS011;2998;48.206;16.394;2023-02-15T08:52:58;31.00;;;17.07;;
5945;SDS011;2998;48.206;16.394;2023-02-15T08:55:26;26.93;;;15.80;;
5945;SDS011;2998;48.206;16.394;2023-02-15T08:57:54;28.70;;;14.67;;
5945;SDS011;2998;48.206;16.394;2023-02-15T09:00:22;26.03;;;15.67;;
5945;SDS011;2998;48.206;16.394;2023-02-15T09:02:51;25.47;;;15.27;;
5945;SDS011;2998;48.206;16.394;2023-02-15T09:05:19;27.73;;;16.00;;
5945;SDS011;2998;48.206;16.394;2023-02-15T09:07:47;24.50;;;14.83;;
5945;SDS011;2998;48.206;16.394;2023-02-15T09:10:17;22.70;;;14.77;;
5945;SDS011;2998;48.206;16.394;2023-02-15T09:12:45;22.37;;;13.87;;
5945;SDS011;2998;48.206;16.394;2023-02-15T09:15:13;21.90;;;14.50;;
5945;SDS011;2998;48.206;16.394;2023-02-15T09:17:41;23.57;;;14.73;;
5945;SDS011;2998;48.206;16.394;2023-02-15T09:20:09;20.80;;;13.80;;
5945;SDS011;2998;48.206;16.394;2023-02-15T09:22:37;22.20;;;13.40;;
5945;SDS011;2998;48.206;16.394;2023-02-15T09:25:05;22.20;;;14.27;;
5945;SDS011;2998;48.206;16.394;2023-02-15T09:27:35;22.83;;;14.33;;
5945;SDS011;2998;48.206;16.394;2023-02-15T09:30:05;25.70;;;14.20;;
5945;SDS011;2998;48.206;16.394;2023-02-15T09:32:34;23.70;;;15.13;;
5945;SDS011;2998;48.206;16.394;2023-02-15T09:35:02;25.23;;;14.30;;
5945;SDS011;2998;48.206;16.394;2023-02-15T09:37:29;19.83;;;12.43;;
5945;SDS011;2998;48.206;16.394;2023-02-15T09:39:58;18.53;;;12.93;;
5945;SDS011;2998;48.206;16.394;2023-02-15T09:42:33;21.07;;;12.30;;
5945;SDS011;2998;48.206;16.394;2023-02-15T09:45:28;20.13;;;12.03;;
5945;SDS011;2998;48.206;16.394;2023-02-15T09:48:15;27.70;;;14.33;;
5945;SDS011;2998;48.206;16.394;2023-02-15T09:50:56;19.83;;;12.80;;
5945;SDS011;2998;48.206;16.394;2023-02-15T09:53:34;17.93;;;11.90;;
5945;SDS011;2998;48.206;16.394;2023-02-15T09:56:13;17.40;;;11.17;;
5945;SDS011;2998;48.206;16.394;2023-02-15T09:58:47;17.70;;;12.23;;
5945;SDS011;2998;48.206;16.394;2023-02-15T10:01:24;19.60;;;12.70;;
5945;SDS011;2998;48.206;16.394;2023-02-15T10:04:04;15.33;;;10.60;;
5945;SDS011;2998;48.206;16.394;2023-02-15T10:06:42;18.87;;;11.50;;
5945;SDS011;2998;48.206;16.394;2023-02-15T10:09:16;17.40;;;12.17;;
5945;SDS011;2998;48.206;16.394;2023-02-15T10:12:06;16.30;;;11.97;;
5945;SDS011;2998;48.206;16.394;2023-02-15T10:17:40;20.73;;;12.97;;
5945;SDS011;2998;48.206;16.394;2023-02-15T10:20:17;18.20;;;13.07;;
5945;SDS011;2998;48.206;16.394;2023-02-15T10:22:56;21.63;;;13.50;;
5945;SDS011;2998;48.206;16.394;2023-02-15T10:25:33;19.53;;;12.83;;
5945;SDS011;2998;48.206;16.394;2023-02-15T10:28:06;20.53;;;12.73;;
5945;SDS011;2998;48.206;16.394;2023-02-15T10:30:40;17.30;;;12.20;;
5945;SDS011;2998;48.206;16.394;2023-02-15T10:33:14;20.00;;;11.90;;
5945;SDS011;2998;48.206;16.394;2023-02-15T10:35:51;17.33;;;11.93;;
5945;SDS011;2998;48.206;16.394;2023-02-15T10:38:27;16.23;;;11.00;;
5945;SDS011;2998;48.206;16.394;2023-02-15T10:41:03;13.70;;;10.50;;
5945;SDS011;2998;48.206;16.394;2023-02-15T10:43:46;19.00;;;12.07;;
5945;SDS011;2998;48.206;16.394;2023-02-15T10:46:25;16.00;;;11.37;;
5945;SDS011;2998;48.206;16.394;2023-02-15T10:49:10;17.03;;;10.77;;
5945;SDS011;2998;48.206;16.394;2023-02-15T10:51:57;17.83;;;11.50;;
5945;SDS011;2998;48.206;16.394;2023-02-15T10:54:35;17.43;;;12.20;;
5945;SDS011;2998;48.206;16.394;2023-02-15T10:57:09;20.20;;;12.23;;
5945;SDS011;2998;48.206;16.394;2023-02-15T10:59:48;20.80;;;13.47;;
5945;SDS011;2998;48.206;16.394;2023-02-15T11:02:27;18.53;;;11.63;;
5945;SDS011;2998;48.206;16.394;2023-02-15T11:05:08;19.30;;;11.83;;
5945;SDS011;2998;48.206;16.394;2023-02-15T11:07:48;15.47;;;10.63;;
5945;SDS011;2998;48.206;16.394;2023-02-15T11:10:23;17.50;;;10.60;;
5945;SDS011;2998;48.206;16.394;2023-02-15T11:12:54;16.70;;;11.07;;
5945;SDS011;2998;48.206;16.394;2023-02-15T11:15:25;21.00;;;12.17;;
5945;SDS011;2998;48.206;16.394;2023-02-15T11:17:57;16.90;;;13.07;;
5945;SDS011;2998;48.206;16.394;2023-02-15T11:20:29;18.33;;;9.27;;
5945;SDS011;2998;48.206;16.394;2023-02-15T11:22:59;16.07;;;11.10;;
5945;SDS011;2998;48.206;16.394;2023-02-15T11:25:29;18.73;;;12.70;;
5945;SDS011;2998;48.206;16.394;2023-02-15T11:27:58;15.93;;;10.27;;
5945;SDS011;2998;48.206;16.394;2023-02-15T11:30:27;16.27;;;10.23;;
5945;SDS011;2998;48.206;16.394;2023-02-15T11:33:12;16.27;;;11.30;;
5945;SDS011;2998;48.206;16.394;2023-02-15T11:35:50;13.90;;;10.30;;
5945;SDS011;2998;48.206;16.394;2023-02-15T11:38:20;14.20;;;10.00;;
5945;SDS011;2998;48.206;16.394;2023-02-15T11:40:51;15.90;;;10.17;;
5945;SDS011;2998;48.206;16.394;2023-02-15T11:43:21;16.27;;;11.80;;
5945;SDS011;2998;48.206;16.394;2023-02-15T11:45:52;18.73;;;11.70;;
5945;SDS011;2998;48.206;16.394;2023-02-15T11:48:20;20.50;;;12.70;;
5945;SDS011;2998;48.206;16.394;2023-02-15T11:50:50;29.10;;;13.80;;
5945;SDS011;2998;48.206;16.394;2023-02-15T11:53:21;21.87;;;13.37;;
5945;SDS011;2998;48.206;16.394;2023-02-15T11:55:51;21.63;;;14.23;;
5945;SDS011;2998;48.206;16.394;2023-02-15T11:58:23;22.93;;;13.40;;
5945;SDS011;2998;48.206;16.394;2023-02-15T12:00:56;22.23;;;14.03;;
5945;SDS011;2998;48.206;16.394;2023-02-15T12:03:28;23.40;;;15.70;;
5945;SDS011;2998;48.206;16.394;2023-02-15T12:06:01;25.27;;;15.47;;
5945;SDS011;2998;48.206;16.394;2023-02-15T12:08:32;26.40;;;15.40;;
5945;SDS011;2998;48.206;16.394;2023-02-15T12:11:06;30.50;;;18.43;;
5945;SDS011;2998;48.206;16.394;2023-02-15T12:13:46;29.97;;;17.43;;
5945;SDS011;2998;48.206;16.394;2023-02-15T12:16:21;21.70;;;13.50;;
5945;SDS011;2998;48.206;16.394;2023-02-15T12:18:50;18.03;;;12.60;;
5945;SDS011;2998;48.206;16.394;2023-02-15T12:21:25;18.27;;;12.27;;
5945;SDS011;2998;48.206;16.394;2023-02-15T12:23:55;16.63;;;10.93;;
5945;SDS011;2998;48.206;16.394;2023-02-15T12:26:26;17.47;;;12.30;;
5945;SDS011;2998;48.206;16.394;2023-02-15T12:28:55;17.73;;;12.50;;
5945;SDS011;2998;48.206;16.394;2023-02-15T12:31:30;18.00;;;11.53;;
5945;SDS011;2998;48.206;16.394;2023-02-15T12:34:01;18.40;;;11.80;;
5945;SDS011;2998;48.206;16.394;2023-02-15T12:36:39;16.23;;;11.30;;
5945;SDS011;2998;48.206;16.394;2023-02-15T12:39:18;32.20;;;13.93;;
5945;SDS011;2998;48.206;16.394;2023-02-15T12:41:59;23.97;;;14.47;;
5945;SDS011;2998;48.206;16.394;2023-02-15T12:44:29;20.23;;;12.87;;
5945;SDS011;2998;48.206;16.394;2023-02-15T12:46:59;19.00;;;13.13;;
5945;SDS011;2998;48.206;16.394;2023-02-15T12:49:29;22.60;;;13.70;;
5945;SDS011;2998;48.206;16.394;2023-02-15T12:51:59;20.57;;;13.40;;
5945;SDS011;2998;48.206;16.394;2023-02-15T12:54:38;22.00;;;15.00;;
5945;SDS011;2998;48.206;16.394;2023-02-15T12:57:14;18.63;;;13.07;;
5945;SDS011;2998;48.206;16.394;2023-02-15T12:59:53;23.40;;;13.43;;
5945;SDS011;2998;48.206;16.394;2023-02-15T13:02:26;23.17;;;12.87;;
5945;SDS011;2998;48.206;16.394;2023-02-15T13:04:56;21.90;;;15.73;;
5945;SDS011;2998;48.206;16.394;2023-02-15T13:07:29;26.03;;;16.17;;
5945;SDS011;2998;48.206;16.394;2023-02-15T13:09:58;22.97;;;14.50;;
5945;SDS011;2998;48.206;16.394;2023-02-15T13:12:27;22.53;;;15.37;;
5945;SDS011;2998;48.206;16.394;2023-02-15T13:14:58;22.87;;;14.60;;
5945;SDS011;2998;48.206;16.394;2023-02-15T13:17:29;30.13;;;17.10;;
5945;SDS011;2998;48.206;16.394;2023-02-15T13:20:01;29.43;;;18.20;;
5945;SDS011;2998;48.206;16.394;2023-02-15T13:22:37;30.53;;;18.43;;
5945;SDS011;2998;48.206;16.394;2023-02-15T13:25:12;26.43;;;17.10;;
5945;SDS011;2998;48.206;16.394;2023-02-15T13:27:42;27.60;;;16.70;;
5945;SDS011;2998;48.206;16.394;2023-02-15T13:30:17;32.00;;;20.23;;
5945;SDS011;2998;48.206;16.394;2023-02-15T13:32:51;30.20;;;18.80;;
5945;SDS011;2998;48.206;16.394;2023-02-15T13:35:20;30.57;;;18.07;;
5945;SDS011;2998;48.206;16.394;2023-02-15T13:37:55;31.30;;;17.40;;
5945;SDS011;2998;48.206;16.394;2023-02-15T13:40:29;28.43;;;17.70;;
5945;SDS011;2998;48.206;16.394;2023-02-15T13:43:02;27.20;;;17.00;;
5945;SDS011;2998;48.206;16.394;2023-02-15T13:45:36;26.77;;;17.03;;
5945;SDS011;2998;48.206;16.394;2023-02-15T13:48:11;26.40;;;16.20;;
5945;SDS011;2998;48.206;16.394;2023-02-15T13:50:49;29.60;;;17.10;;
5945;SDS011;2998;48.206;16.394;2023-02-15T13:53:31;28.63;;;18.63;;
5945;SDS011;2998;48.206;16.394;2023-02-15T13:56:09;50.97;;;20.17;;
5945;SDS011;2998;48.206;16.394;2023-02-15T13:58:50;42.83;;;19.67;;
5945;SDS011;2998;48.206;16.394;2023-02-15T14:01:34;31.30;;;17.93;;
5945;SDS011;2998;48.206;16.394;2023-02-15T14:07:10;36.90;;;20.13;;
5945;SDS011;2998;48.206;16.394;2023-02-15T14:09:51;40.47;;;19.60;;
5945;SDS011;2998;48.206;16.394;2023-02-15T14:12:31;32.43;;;19.80;;
5945;SDS011;2998;48.206;16.394;2023-02-15T14:15:08;35.40;;;20.50;;
5945;SDS011;2998;48.206;16.394;2023-02-15T14:17:43;35.63;;;21.07;;
5945;SDS011;2998;48.206;16.394;2023-02-15T14:20:19;39.30;;;21.13;;
5945;SDS011;2998;48.206;16.394;2023-02-15T14:22:52;32.73;;;20.90;;
5945;SDS011;2998;48.206;16.394;2023-02-15T14:25:28;38.50;;;20.63;;
5945;SDS011;2998;48.206;16.394;2023-02-15T14:28:00;31.20;;;18.70;;
5945;SDS011;2998;48.206;16.394;2023-02-15T14:30:34;38.60;;;20.47;;
5945;SDS011;2998;48.206;16.394;2023-02-15T14:33:05;35.40;;;20.43;;
5945;SDS011;2998;48.206;16.394;2023-02-15T14:35:35;34.27;;;20.43;;
5945;SDS011;2998;48.206;16.394;2023-02-15T14:38:05;36.23;;;21.43;;
5945;SDS011;2998;48.206;16.394;2023-02-15T14:40:40;35.73;;;19.77;;
5945;SDS011;2998;48.206;16.394;2023-02-15T14:43:33;40.40;;;22.73;;
5945;SDS011;2998;48.206;16.394;2023-02-15T14:46:07;42.77;;;22.57;;
5945;SDS011;2998;48.206;16.394;2023-02-15T14:48:39;43.70;;;21.40;;
5945;SDS011;2998;48.206;16.394;2023-02-15T14:51:09;55.43;;;31.30;;
5945;SDS011;2998;48.206;16.394;2023-02-15T14:53:37;40.50;;;21.50;;
5945;SDS011;2998;48.206;16.394;2023-02-15T14:56:15;40.83;;;22.40;;
5945;SDS011;2998;48.206;16.394;2023-02-15T14:58:58;33.50;;;20.83;;
5945;SDS011;2998;48.206;16.394;2023-02-15T15:01:40;34.93;;;20.70;;
5945;SDS011;2998;48.206;16.394;2023-02-15T15:04:09;32.60;;;20.37;;
5945;SDS011;2998;48.206;16.394;2023-02-15T15:06:40;37.17;;;20.83;;
5945;SDS011;2998;48.206;16.394;2023-02-15T15:09:10;35.90;;;20.43;;
5945;SDS011;2998;48.206;16.394;2023-02-15T15:11:45;38.70;;;21.20;;
5945;SDS011;2998;48.206;16.394;2023-02-15T15:17:09;37.73;;;21.50;;
5945;SDS011;2998;48.206;16.394;2023-02-15T15:22:33;36.97;;;21.57;;
5945;SDS011;2998;48.206;16.394;2023-02-15T15:25:03;38.73;;;21.70;;
5945;SDS011;2998;48.206;16.394;2023-02-15T15:39:58;46.60;;;23.13;;
5945;SDS011;2998;48.206;16.394;2023-02-15T15:42:43;47.60;;;23.97;;
5945;SDS011;2998;48.206;16.394;2023-02-15T15:45:25;50.77;;;25.40;;
5945;SDS011;2998;48.206;16.394;2023-02-15T15:48:03;51.23;;;24.63;;
5945;SDS011;2998;48.206;16.394;2023-02-15T15:50:39;56.17;;;27.07;;
5945;SDS011;2998;48.206;16.394;2023-02-15T15:53:10;48.27;;;26.60;;
5945;SDS011;2998;48.206;16.394;2023-02-15T15:55:46;52.93;;;27.20;;